METAR ET TAF INFORMATION
METAR FOR ENSK
ADDS - METARS form results

(0538 UTC 16 October 2019)
Data provider http://aviationweather.gov/metar/data/
 
METAR text: ENSK 160520Z 36006KT 9999 FEW030 M00/M01 Q1017
Conditions at: ENSK (STORKMARKNES/SKA, NO) observed 0520 UTC 16 October 2019
Temperature: 0.0°C (32°F)
Dewpoint: -1.0°C (30°F) [RH = 93%]
Pressure (altimeter): 30.03 inches Hg (1017.0 mb)
Winds: from the N (360 degrees) at 7 MPH (6 knots; 3.1 m/s)
Visibility: 6 or more miles (10+ km)
Ceiling: at least 12,000 feet AGL
Clouds: few clouds at 3000 feet AGL
Weather: no significant weather observed at this time

 AÉROPORT DE AÉROPORT

 INFORMATIONS DE PISTE
Piste 09 Longueur de la piste 2848 ft Largeur de la piste 0 ft
Élévation de la piste 8 ft Seuil de la piste déplacés 0 ft Runway heading 0
Piste 27 Longueur de la piste 2848 ft Largeur de la piste 0 ft
Élévation de la piste 11 ft Seuil de la piste déplacés 0 ft Runway heading 0

 AÉROPORT FRÉQUENCES

 SIDA DE NAVIGATION
Type VOR-DME Nom Skagen Féquence 112800 KHZ



Powered by Virtual Airlines Manager [v2.6.2]